Callands, Virginia
Current Conditions -  °F | °C
As of 2:53 AM on Friday 31 Oct 2014 (Local Time) from KDAN Reporting Station
Clear Clear  
Wind Chill: 39°   Ceiling: Unl
Heat Index: 42°   Visibility: 10mi
Dew Point: 35°   Wind: 5mph
Humidity: 76%   Direction: 30°NNE
Pressure: 30.01"   Gusts: NA
Location:  36.82°N, 79.59°W
Report Text: KDAN 310653Z AUTO 03004KT 10SM CLR 06/02 A3001 RMK AO2 SLP157 T00560017
Loading
Personal Weather Stations






























Interactive Weather Map
Tropical Storm Tracking
New forecast layout! Learn more

10-Day Weather Forecast

Advertisements
Track Severe Weather on mobile